map of IMP home
IMP - Airport
Location
City:  Imperatriz, Maranhão, Brazil
ICAO:SBIZ
IATA:IMP

Details
Type:Airport (Aerodrome, Airfield)
Latitude:5°31'53"S (-5.531291)
Longitude:47°27'36"W (-47.460049)
Datum:WGS 1984
Elevation:431 ft (131 m)
Variation:21.02°W (WMM2015 magnetic declination)
-0.04° annual change
Runways:1
Longest:5899 × 148 ft (1798 × 45 m), paved

Time
Time Zone:UTC-3
Local Time:

Weather
METAR:SBIZ 111100Z 08004KT 9999 BKN020 29/24 Q1015
TAF:SBIZ 110400Z 1106/1118 00000KT 9999 SCT025 TN25/1107Z TX35/1117Z
BECMG 1108/1110 09005KT SCT015
BECMG 1115/1117 12005KT SCT025
RMK PCQ

Related Locations
Nearby:
Farthest:ROR: 12253 mi / 19720 km
Babelthuap Island [Babelthuap/Koror Airport], PW

Find:

   beyond  
but within

Other Information
Maps:
NOTAMs:
Links:
Sources:

  
  • flag of Brazil
  • flag of Maranhão
  

Sectional Chart

Flight Planning
at skyvector.com

Satellite Image

Google Maps Satellite view

 

Copyright © 2004-2018 Karl L. Swartz. All rights reserved.
The Great Circle Mapper name and logo are trademarks of the Great Circle Mapper.
All other trademarks mentioned herein belong to their respective owners.
Please see credits for attibutions and further copyright information.

  Follow gcmap on Facebook Follow gcmap on Twitter Follow gcmap on Google+ GCmap on LinkedIn

hCard Microformat

Geo Microformat